Time;durP1;ratioP1;P1;durP2;ratioP2;P2;SDS_P1;SDS_P2;PMS_P1;PMS_P2;Temp;Humidity;BMP_temperature;BMP_pressure;BME280_temperature;BME280_humidity;BME280_pressure;Samples;Min_cycle;Max_cycle;Signal;HPM_P1;HPM_P2
2022/06/06 00:02:05;;;;;;;;;;;;;;;14.13;89.42;96686.47;5093796;28;19975;-75
2022/06/06 00:04:31;;;;;;;;;;;;;;;14.11;89.05;96677.19;5093983;28;19954;-75
2022/06/06 00:06:58;;;;;;;;;;;;;;;14.11;89.20;96679.81;5093767;28;19965;-75
2022/06/06 00:09:25;;;;;;;;;;;;;;;14.08;89.31;96680.31;5093844;28;19959;-74
2022/06/06 00:11:51;;;;;;;;;;;;;;;14.05;89.48;96676.31;5093728;28;19967;-74
2022/06/06 00:14:17;;;;;;;;;;;;;;;14.03;89.49;96678.38;5093882;28;19955;-74
2022/06/06 00:16:43;;;;;;;;;;;;;;;14.00;89.21;96679.63;5093629;28;19978;-75
2022/06/06 00:19:11;;;;;;;;;;;;;;;13.99;89.18;96674.59;5093576;28;20322;-74
2022/06/06 00:21:37;;;;;;;;;;;;;;;13.96;89.86;96670.59;5093677;28;19966;-74
2022/06/06 00:24:04;;;;;;;;;;;;;;;13.93;89.66;96664.97;5093519;28;19958;-74
2022/06/06 00:26:31;;;;;;;;;;;;;;;13.92;89.96;96666.00;5094215;28;19955;-74
2022/06/06 00:28:57;;;;;;;;;;;;;;;13.92;90.13;96669.47;5093571;28;19956;-74
2022/06/06 00:36:59;;;;;;;;;;;;;;;13.85;90.19;96679.31;5094030;28;20002;-74
2022/06/06 00:39:25;;;;;;;;;;;;;;;13.84;90.25;96671.63;5095069;28;19959;-75
2022/06/06 00:41:53;;;;;;;;;;;;;;;13.83;90.24;96668.22;5097549;28;19973;-75
2022/06/06 00:44:20;;;;;;;;;;;;;;;13.82;90.20;96666.63;5097764;28;19967;-75
2022/06/06 00:46:56;;;;;;;;;;;;;;;13.80;90.16;96674.75;5087781;28;19958;-74
2022/06/06 00:49:26;;;;;;;;;;;;;;;13.78;89.65;96668.91;5097636;28;19961;-76
2022/06/06 00:51:53;;;;;;;;;;;;;;;13.75;90.23;96661.47;5097913;28;19962;-74
2022/06/06 00:54:20;;;;;;;;;;;;;;;13.73;90.24;96662.72;5097401;28;20412;-74
2022/06/06 00:56:49;;;;;;;;;;;;;;;13.69;90.50;96658.94;5097266;28;19959;-75
2022/06/06 00:59:17;;;;;;;;;;;;;;;13.68;90.55;96657.34;5097458;28;19960;-74
2022/06/06 01:01:43;;;;;;;;;;;;;;;13.65;90.67;96652.53;5097320;28;19977;-74
2022/06/06 01:04:11;;;;;;;;;;;;;;;13.64;90.38;96654.38;5097366;28;20039;-75
2022/06/06 01:06:41;;;;;;;;;;;;;;;13.65;90.60;96650.72;5097241;28;20411;-74
2022/06/06 01:09:14;;;;;;;;;;;;;;;13.63;90.65;96644.06;5097066;28;19964;-74
2022/06/06 01:11:42;;;;;;;;;;;;;;;13.61;90.46;96641.69;5096003;28;20449;-74
2022/06/06 01:14:10;;;;;;;;;;;;;;;13.58;90.36;96632.38;5097013;28;19969;-75
2022/06/06 01:16:41;;;;;;;;;;;;;;;13.57;90.35;96640.53;5097045;28;19956;-74
2022/06/06 01:19:25;;;;;;;;;;;;;;;13.55;90.68;96635.50;5097184;28;20331;-75
2022/06/06 01:22:11;;;;;;;;;;;;;;;13.54;91.72;96627.81;5097083;28;20363;-74
2022/06/06 01:24:46;;;;;;;;;;;;;;;13.53;91.86;96628.84;5097210;28;19968;-74
2022/06/06 01:27:28;;;;;;;;;;;;;;;13.52;92.18;96638.59;5096829;28;19953;-74
2022/06/06 01:29:58;;;;;;;;;;;;;;;13.52;92.19;96643.88;5096530;28;19961;-74
2022/06/06 01:32:24;;;;;;;;;;;;;;;13.53;92.94;96629.66;5079399;28;20020;-74
2022/06/06 01:34:53;;;;;;;;;;;;;;;13.53;92.76;96624.38;5096649;28;19970;-74
2022/06/06 01:37:33;;;;;;;;;;;;;;;13.54;92.55;96622.53;5097198;28;19980;-74
2022/06/06 01:40:01;;;;;;;;;;;;;;;13.54;92.35;96609.38;5095734;28;19962;-74
2022/06/06 01:42:48;;;;;;;;;;;;;;;13.53;92.13;96627.03;5096641;28;20459;-74
2022/06/06 01:45:22;;;;;;;;;;;;;;;13.51;91.74;96615.91;5081222;28;19954;-74
2022/06/06 01:47:51;;;;;;;;;;;;;;;13.52;91.96;96611.44;5095649;28;19958;-74
2022/06/06 01:50:17;;;;;;;;;;;;;;;13.47;92.73;96609.50;5095515;28;19965;-75
2022/06/06 01:52:49;;;;;;;;;;;;;;;13.44;92.30;96599.44;5095334;28;20021;-74
2022/06/06 01:55:16;;;;;;;;;;;;;;;13.42;92.21;96606.78;5096205;28;19956;-74
2022/06/06 01:57:42;;;;;;;;;;;;;;;13.39;91.88;96599.31;5096615;28;19954;-74
2022/06/06 02:00:08;;;;;;;;;;;;;;;13.38;91.71;96611.69;5096277;28;19957;-74
2022/06/06 02:02:34;;;;;;;;;;;;;;;13.37;91.59;96607.44;5096199;28;19973;-74
2022/06/06 02:05:00;;;;;;;;;;;;;;;13.35;91.89;96585.81;5096032;28;19989;-74
2022/06/06 02:07:27;;;;;;;;;;;;;;;13.35;91.93;96585.81;5092413;28;19957;-74
2022/06/06 02:09:53;;;;;;;;;;;;;;;13.32;92.16;96594.19;5094775;28;19968;-74
2022/06/06 02:12:20;;;;;;;;;;;;;;;13.29;92.34;96594.66;5095884;28;19950;-74
2022/06/06 02:14:47;;;;;;;;;;;;;;;13.25;91.97;96596.13;5095898;28;19957;-74
2022/06/06 02:17:13;;;;;;;;;;;;;;;13.24;92.20;96593.72;5096317;28;19968;-74
2022/06/06 02:19:39;;;;;;;;;;;;;;;13.24;92.13;96591.06;5095714;28;19962;-74
2022/06/06 02:22:06;;;;;;;;;;;;;;;13.23;91.95;96592.91;5094815;28;20433;-74
2022/06/06 02:24:32;;;;;;;;;;;;;;;13.20;92.09;96588.88;5095647;28;19958;-74
2022/06/06 02:26:58;;;;;;;;;;;;;;;13.22;92.15;96585.22;5095557;28;20338;-74
2022/06/06 02:29:26;;;;;;;;;;;;;;;13.23;92.25;96592.09;5095691;28;19964;-74
2022/06/06 02:31:52;;;;;;;;;;;;;;;13.23;91.92;96589.44;5095457;28;20606;-74
2022/06/06 02:34:18;;;;;;;;;;;;;;;13.22;91.84;96588.66;5095402;28;19966;-74
2022/06/06 02:36:44;;;;;;;;;;;;;;;13.23;91.83;96589.44;5077623;28;19993;-74
2022/06/06 02:39:10;;;;;;;;;;;;;;;13.22;91.67;96595.75;5095298;28;19969;-74
2022/06/06 02:41:36;;;;;;;;;;;;;;;13.22;92.18;96601.81;5095505;28;20432;-74
2022/06/06 02:44:02;;;;;;;;;;;;;;;13.22;91.92;96603.66;5095469;28;20033;-74
2022/06/06 02:46:27;;;;;;;;;;;;;;;13.20;91.94;96594.16;5095141;28;20411;-74
2022/06/06 02:48:53;;;;;;;;;;;;;;;13.19;91.72;96603.09;5095498;28;19963;-74
2022/06/06 02:51:19;;;;;;;;;;;;;;;13.14;92.15;96602.97;5095526;28;19967;-74
2022/06/06 02:53:45;;;;;;;;;;;;;;;13.09;94.33;96602.06;5095001;28;19985;-74
2022/06/06 02:56:11;;;;;;;;;;;;;;;13.06;93.90;96603.34;5095436;28;19957;-74
2022/06/06 02:58:37;;;;;;;;;;;;;;;13.04;93.46;96604.56;5095210;28;19952;-74
2022/06/06 03:01:06;;;;;;;;;;;;;;;13.03;93.50;96595.88;5095299;28;19961;-74
2022/06/06 03:03:33;;;;;;;;;;;;;;;13.03;93.41;96605.63;5094582;28;19966;-74
2022/06/06 03:06:05;;;;;;;;;;;;;;;13.03;93.18;96611.69;5094954;28;19958;-74
2022/06/06 03:08:40;;;;;;;;;;;;;;;13.02;92.78;96601.38;5095211;28;19961;-74
2022/06/06 03:11:18;;;;;;;;;;;;;;;12.99;92.39;96616.59;5095224;28;19955;-74
2022/06/06 03:13:59;;;;;;;;;;;;;;;12.98;92.18;96620.28;5094767;28;19956;-74
2022/06/06 03:22:49;;;;;;;;;;;;;;;12.80;93.62;96609.84;5085892;28;19968;-74
2022/06/06 03:25:20;;;;;;;;;;;;;;;12.78;92.87;96610.06;5076686;28;19951;-74
2022/06/06 03:28:06;;;;;;;;;;;;;;;12.78;93.66;96612.69;5094569;28;19955;-74
2022/06/06 03:30:40;;;;;;;;;;;;;;;12.80;93.58;96609.84;5093501;28;19982;-74
2022/06/06 03:33:13;;;;;;;;;;;;;;;12.83;93.44;96611.22;5094545;28;20412;-74
2022/06/06 03:35:58;;;;;;;;;;;;;;;12.84;93.17;96615.47;5093828;28;19954;-74
2022/06/06 03:38:26;;;;;;;;;;;;;;;12.85;92.67;96611.78;5094301;28;20402;-74
2022/06/06 03:40:53;;;;;;;;;;;;;;;12.85;92.94;96607.34;5094212;28;20410;-74
2022/06/06 03:43:21;;;;;;;;;;;;;;;12.85;92.48;96622.31;5094278;28;19970;-74
2022/06/06 03:45:53;;;;;;;;;;;;;;;12.85;92.48;96619.69;5094414;28;19958;-74
2022/06/06 03:48:25;;;;;;;;;;;;;;;12.87;92.35;96622.88;5094469;28;19957;-74
2022/06/06 03:50:51;;;;;;;;;;;;;;;12.88;92.42;96627.13;5094152;28;19955;-74
2022/06/06 03:53:36;;;;;;;;;;;;;;;12.90;93.04;96636.41;5094130;28;19958;-74
2022/06/06 03:56:14;;;;;;;;;;;;;;;12.91;93.40;96624.03;5083172;28;19963;-74
2022/06/06 03:58:40;;;;;;;;;;;;;;;12.92;93.08;96630.91;5094245;28;19959;-74
2022/06/06 04:01:08;;;;;;;;;;;;;;;12.93;92.93;96633.31;5094176;28;19960;-74
2022/06/06 04:03:35;;;;;;;;;;;;;;;12.94;92.60;96634.13;5094058;28;19969;-74
2022/06/06 04:06:02;;;;;;;;;;;;;;;12.94;92.78;96627.03;5094114;28;19963;-75
2022/06/06 04:08:28;;;;;;;;;;;;;;;12.96;93.27;96622.31;5093745;28;19959;-74
2022/06/06 04:11:06;;;;;;;;;;;;;;;12.97;93.52;96625.75;5093944;28;20429;-74
2022/06/06 04:13:53;;;;;;;;;;;;;;;13.01;93.53;96634.81;5093511;28;19951;-74
2022/06/06 04:16:35;;;;;;;;;;;;;;;13.09;93.84;96637.09;5093730;28;19961;-74
2022/06/06 04:19:10;;;;;;;;;;;;;;;13.16;94.41;96623.81;5094241;28;19975;-74
2022/06/06 04:22:02;;;;;;;;;;;;;;;13.24;93.78;96633.22;5093796;28;19958;-74
2022/06/06 04:24:46;;;;;;;;;;;;;;;13.32;93.47;96623.16;5077155;28;19945;-74
2022/06/06 04:27:28;;;;;;;;;;;;;;;13.45;93.58;96624.75;5093801;28;19952;-74
2022/06/06 04:30:00;;;;;;;;;;;;;;;13.56;93.39;96633.66;5083887;28;19966;-74
2022/06/06 04:32:46;;;;;;;;;;;;;;;13.66;93.30;96631.22;5092976;28;19957;-74
2022/06/06 04:35:15;;;;;;;;;;;;;;;13.77;93.62;96630.41;5093761;28;19950;-74
2022/06/06 04:38:00;;;;;;;;;;;;;;;13.87;93.18;96636.91;5094024;28;20323;-74
2022/06/06 04:40:35;;;;;;;;;;;;;;;13.97;92.39;96627.38;5080464;28;19951;-74
2022/06/06 04:43:05;;;;;;;;;;;;;;;14.06;92.37;96625.16;5076253;28;19967;-74
2022/06/06 04:46:04;;;;;;;;;;;;;;;14.15;92.69;96628.19;5093503;28;19962;-74
2022/06/06 04:48:32;;;;;;;;;;;;;;;14.25;91.71;96635.50;5049084;28;19979;-74
2022/06/06 04:50:59;;;;;;;;;;;;;;;14.30;91.45;96633.78;5093242;28;19957;-74
2022/06/06 04:53:26;;;;;;;;;;;;;;;14.46;91.49;96626.13;5092688;28;19962;-74
2022/06/06 04:55:53;;;;;;;;;;;;;;;14.59;91.07;96639.84;5093589;28;20418;-74
2022/06/06 04:58:20;;;;;;;;;;;;;;;14.69;90.41;96633.94;5089930;28;19964;-74
2022/06/06 05:00:46;;;;;;;;;;;;;;;14.76;89.37;96633.75;5093472;28;20362;-74
2022/06/06 05:03:15;;;;;;;;;;;;;;;14.83;88.85;96634.44;5093796;28;19977;-74
2022/06/06 05:05:59;;;;;;;;;;;;;;;14.88;89.01;96629.22;5092283;28;19963;-74
2022/06/06 05:08:54;;;;;;;;;;;;;;;14.91;88.76;96635.84;5093212;28;19957;-74
2022/06/06 05:11:29;;;;;;;;;;;;;;;14.91;88.26;96639.31;4996938;28;19968;-75
2022/06/06 05:14:01;;;;;;;;;;;;;;;14.93;89.33;96647.78;5093007;28;19945;-75
2022/06/06 05:16:35;;;;;;;;;;;;;;;15.00;88.81;96631.78;5093344;28;19949;-75
2022/06/06 05:19:24;;;;;;;;;;;;;;;15.10;88.81;96636.38;5092279;28;19959;-75
2022/06/06 05:21:51;;;;;;;;;;;;;;;15.19;88.27;96633.09;5093301;28;19953;-74
2022/06/06 05:24:20;;;;;;;;;;;;;;;15.22;88.11;96645.84;5093102;28;19993;-74
2022/06/06 05:26:58;;;;;;;;;;;;;;;15.31;88.30;96643.59;5095193;28;19957;-75
2022/06/06 05:29:47;;;;;;;;;;;;;;;15.58;88.14;96648.16;5096751;28;19954;-74
2022/06/06 05:32:40;;;;;;;;;;;;;;;15.98;86.71;96655.84;5078916;28;19977;-74
2022/06/06 05:35:12;;;;;;;;;;;;;;;16.36;85.46;96654.13;5072687;28;19954;-74
2022/06/06 05:37:38;;;;;;;;;;;;;;;16.66;84.71;96647.53;5096699;28;19952;-74
2022/06/06 05:40:14;;;;;;;;;;;;;;;16.98;83.25;96658.16;5096624;28;20456;-74
2022/06/06 05:42:52;;;;;;;;;;;;;;;17.28;81.57;96655.97;5096752;28;19972;-74
2022/06/06 05:45:24;;;;;;;;;;;;;;;17.39;81.45;96653.13;5096533;28;19950;-74
2022/06/06 05:48:01;;;;;;;;;;;;;;;17.30;80.34;96652.00;5093728;28;19953;-74
2022/06/06 05:50:36;;;;;;;;;;;;;;;17.33;79.69;96656.03;5085603;28;19948;-74
2022/06/06 05:53:11;;;;;;;;;;;;;;;17.48;78.66;96650.78;5096416;28;19954;-74
2022/06/06 05:55:48;;;;;;;;;;;;;;;17.60;78.98;96662.00;5078434;28;20416;-74
2022/06/06 05:58:13;;;;;;;;;;;;;;;17.68;79.25;96660.72;5096593;28;20431;-74
2022/06/06 06:00:52;;;;;;;;;;;;;;;17.54;78.44;96662.25;5078140;28;19999;-74
2022/06/06 06:03:26;;;;;;;;;;;;;;;17.31;79.11;96663.44;5096509;28;19974;-74
2022/06/06 06:05:52;;;;;;;;;;;;;;;17.11;80.61;96670.16;5080918;28;19957;-74
2022/06/06 06:08:37;;;;;;;;;;;;;;;17.00;81.10;96677.25;5096227;28;19997;-74
2022/06/06 06:11:12;;;;;;;;;;;;;;;16.96;81.63;96678.78;5078034;28;19961;-74
2022/06/06 06:13:41;;;;;;;;;;;;;;;16.92;81.93;96679.56;5096313;28;20028;-74
2022/06/06 06:16:30;;;;;;;;;;;;;;;17.12;83.36;96682.38;5060367;28;19949;-74
2022/06/06 06:19:17;;;;;;;;;;;;;;;17.29;81.07;96682.22;5095948;28;19955;-74
2022/06/06 06:22:01;;;;;;;;;;;;;;;17.32;81.42;96683.56;5095959;28;19944;-74
2022/06/06 06:24:30;;;;;;;;;;;;;;;17.30;81.31;96688.31;5094510;28;19965;-74
2022/06/06 06:26:57;;;;;;;;;;;;;;;17.27;81.79;96688.84;5095706;28;20396;-74
2022/06/06 06:29:23;;;;;;;;;;;;;;;17.29;81.51;96689.38;5095883;28;19948;-74
2022/06/06 06:31:52;;;;;;;;;;;;;;;17.24;82.37;96698.13;5089429;28;19992;-74
2022/06/06 06:34:45;;;;;;;;;;;;;;;17.40;82.28;96699.00;5077807;28;19961;-74
2022/06/06 06:37:28;;;;;;;;;;;;;;;17.52;82.72;96704.13;5085517;28;19958;-74
2022/06/06 06:40:06;;;;;;;;;;;;;;;17.48;80.80;96700.38;5095687;28;19947;-74
2022/06/06 06:42:51;;;;;;;;;;;;;;;17.39;81.80;96708.03;5095209;28;19959;-74
2022/06/06 06:45:43;;;;;;;;;;;;;;;17.46;82.20;96713.88;5095556;28;19961;-74
2022/06/06 06:48:14;;;;;;;;;;;;;;;17.73;82.38;96713.78;5085310;28;20348;-74
2022/06/06 06:50:49;;;;;;;;;;;;;;;18.08;82.88;96719.56;5095563;28;20433;-74
2022/06/06 06:53:29;;;;;;;;;;;;;;;18.28;80.66;96703.72;5095109;28;20021;-74
2022/06/06 06:56:05;;;;;;;;;;;;;;;18.42;79.92;96710.13;5077429;28;19958;-74
2022/06/06 06:58:54;;;;;;;;;;;;;;;18.61;79.23;96694.50;5053277;28;20454;-74
2022/06/06 07:01:34;;;;;;;;;;;;;;;18.63;79.34;96703.00;5095215;28;20048;-74
2022/06/06 07:10:19;;;;;;;;;;;;;;;18.56;77.71;96713.09;5087328;28;19958;-74
2022/06/06 07:13:11;;;;;;;;;;;;;;;18.43;79.07;96714.38;5094826;28;19960;-74
2022/06/06 07:15:42;;;;;;;;;;;;;;;18.32;78.52;96706.66;5078304;28;20419;-74
2022/06/06 07:18:10;;;;;;;;;;;;;;;18.23;79.63;96711.66;5095552;28;19967;-74
2022/06/06 07:20:38;;;;;;;;;;;;;;;18.16;79.79;96708.44;5094615;28;19951;-74
2022/06/06 07:23:06;;;;;;;;;;;;;;;18.17;80.30;96708.19;5095034;28;19966;-74
2022/06/06 07:25:40;;;;;;;;;;;;;;;18.10;80.21;96715.59;5094758;28;19967;-74
2022/06/06 07:28:09;;;;;;;;;;;;;;;18.23;81.69;96704.50;5092985;28;19964;-74
2022/06/06 07:30:40;;;;;;;;;;;;;;;18.39;78.76;96702.69;5076032;28;20006;-74
2022/06/06 07:33:29;;;;;;;;;;;;;;;18.69;78.84;96706.47;5011886;28;20349;-74
2022/06/06 07:36:16;;;;;;;;;;;;;;;19.13;77.84;96711.34;5004617;28;19961;-74
2022/06/06 07:38:50;;;;;;;;;;;;;;;19.54;77.12;96716.59;5012437;28;20358;-74
2022/06/06 07:41:19;;;;;;;;;;;;;;;19.83;71.55;96692.91;5012263;28;19964;-74
2022/06/06 07:44:00;;;;;;;;;;;;;;;19.94;66.07;96645.75;5012952;28;19986;-74
2022/06/06 07:46:44;;;;;;;;;;;;;;;19.97;67.35;96663.84;5012305;28;19968;-74
2022/06/06 07:49:28;;;;;;;;;;;;;;;19.87;67.89;96677.97;5011504;28;20376;-74
2022/06/06 07:52:13;;;;;;;;;;;;;;;19.71;64.82;96641.84;5012466;28;19954;-74
2022/06/06 07:54:38;;;;;;;;;;;;;;;19.58;66.75;96666.34;5012675;28;19953;-74
2022/06/06 07:57:13;;;;;;;;;;;;;;;19.55;67.23;96666.84;5012101;28;19955;-74
2022/06/06 07:59:57;;;;;;;;;;;;;;;19.59;67.47;96674.06;5011613;28;19962;-74
2022/06/06 08:02:48;;;;;;;;;;;;;;;19.63;61.85;96619.25;5012218;28;19965;-74
2022/06/06 08:05:27;;;;;;;;;;;;;;;19.78;65.52;96647.69;5012004;28;19958;-74
2022/06/06 08:07:53;;;;;;;;;;;;;;;19.96;64.94;96642.81;5011733;28;20053;-74
2022/06/06 08:10:31;;;;;;;;;;;;;;;20.16;64.42;96641.91;5044542;28;20394;-74
2022/06/06 08:13:07;;;;;;;;;;;;;;;20.38;64.36;96634.34;5093696;28;19957;-73
2022/06/06 08:15:33;;;;;;;;;;;;;;;20.56;63.53;96626.78;5094079;28;20329;-74
2022/06/06 08:18:14;;;;;;;;;;;;;;;20.77;62.36;96627.44;5093800;28;19959;-73
2022/06/06 08:20:52;;;;;;;;;;;;;;;20.94;61.69;96613.72;5093296;28;19963;-73
2022/06/06 08:23:19;;;;;;;;;;;;;;;21.05;59.01;96592.00;5093677;28;19978;-74
2022/06/06 08:25:48;;;;;;;;;;;;;;;21.21;58.17;96576.66;5093681;28;19961;-74
2022/06/06 08:28:14;;;;;;;;;;;;;;;21.26;55.01;96549.91;5093626;28;19956;-74
2022/06/06 08:30:41;;;;;;;;;;;;;;;21.35;58.78;96589.31;5093071;28;20002;-74
2022/06/06 08:33:07;;;;;;;;;;;;;;;21.40;56.49;96559.91;5093529;28;19958;-74
2022/06/06 08:35:40;;;;;;;;;;;;;;;21.45;57.48;96567.88;5094021;28;20005;-74
2022/06/06 08:38:16;;;;;;;;;;;;;;;21.60;58.61;96569.56;5093543;28;19965;-73
2022/06/06 08:41:01;;;;;;;;;;;;;;;21.84;56.06;96558.88;5093681;28;19962;-74
2022/06/06 08:43:36;;;;;;;;;;;;;;;22.00;55.89;96551.44;5075577;28;19963;-74
2022/06/06 08:46:08;;;;;;;;;;;;;;;22.02;54.50;96535.91;5093552;28;20327;-73
2022/06/06 08:48:41;;;;;;;;;;;;;;;22.18;57.11;96576.56;5094005;28;19947;-74
2022/06/06 08:51:22;;;;;;;;;;;;;;;22.22;58.39;96574.91;5093520;28;19952;-74
2022/06/06 08:53:48;;;;;;;;;;;;;;;22.17;56.77;96558.94;5093432;28;19956;-74
2022/06/06 08:56:33;;;;;;;;;;;;;;;22.05;53.01;96519.34;5093418;28;20415;-74
2022/06/06 08:59:01;;;;;;;;;;;;;;;22.05;52.47;96500.63;5093465;28;19953;-74
2022/06/06 09:01:39;;;;;;;;;;;;;;;22.21;54.49;96526.00;5096745;28;19962;-74
2022/06/06 09:04:14;;;;;;;;;;;;;;;22.37;56.02;96557.88;5097199;28;19974;-74
2022/06/06 09:07:00;;;;;;;;;;;;;;;22.48;54.29;96540.59;5097558;28;19952;-74
2022/06/06 09:09:35;;;;;;;;;;;;;;;22.40;54.38;96526.00;5081637;28;20323;-74
2022/06/06 09:12:20;;;;;;;;;;;;;;;22.41;56.29;96554.34;5097283;28;20337;-73
2022/06/06 09:15:04;;;;;;;;;;;;;;;22.29;50.29;96484.53;5081728;28;19949;-73
2022/06/06 09:17:30;;;;;;;;;;;;;;;22.16;54.08;96525.31;5079340;28;19961;-74
2022/06/06 09:20:07;;;;;;;;;;;;;;;22.28;56.44;96542.50;5097419;28;19955;-73
2022/06/06 09:22:53;;;;;;;;;;;;;;;22.42;54.73;96515.81;5097083;28;19949;-73
2022/06/06 09:25:19;;;;;;;;;;;;;;;22.59;54.87;96515.28;5096767;28;19949;-74
2022/06/06 09:28:03;;;;;;;;;;;;;;;22.69;51.65;96491.03;5097139;28;19962;-74
2022/06/06 09:30:45;;;;;;;;;;;;;;;22.67;53.27;96500.44;5095578;28;19989;-74
2022/06/06 09:33:30;;;;;;;;;;;;;;;22.73;52.88;96495.81;5096784;28;19954;-75
2022/06/06 09:36:39;;;;;;;;;;;;;;;22.80;52.82;96505.03;5089471;28;19958;-74
2022/06/06 09:39:40;;;;;;;;;;;;;;;22.77;49.74;96462.84;5092356;28;19956;-74
2022/06/06 09:42:28;;;;;;;;;;;;;;;23.00;49.62;96465.63;5039910;28;19958;-74
2022/06/06 09:44:57;;;;;;;;;;;;;;;23.25;49.35;96472.41;5093759;28;19967;-74
2022/06/06 09:47:41;;;;;;;;;;;;;;;23.26;47.56;96450.66;5095712;28;19949;-73
2022/06/06 09:50:26;;;;;;;;;;;;;;;23.18;50.61;96483.50;5096324;28;20337;-74
2022/06/06 09:53:12;;;;;;;;;;;;;;;23.00;46.81;96481.69;5096361;28;19963;-74
2022/06/06 09:59:03;;;;;;;;;;;;;;;22.57;50.64;96516.66;5087976;28;19975;-74
2022/06/06 10:01:29;;;;;;;;;;;;;;;22.42;49.27;96513.16;5087937;28;19957;-74
2022/06/06 10:04:12;;;;;;;;;;;;;;;22.41;50.24;96532.16;5096184;28;19978;-74
2022/06/06 10:06:54;;;;;;;;;;;;;;;22.53;52.19;96543.16;5095209;28;19963;-74
2022/06/06 10:09:19;;;;;;;;;;;;;;;22.70;52.26;96531.97;5095557;28;19953;-74
2022/06/06 10:11:48;;;;;;;;;;;;;;;22.78;48.30;96493.81;5095542;28;20018;-74
2022/06/06 10:14:37;;;;;;;;;;;;;;;22.78;49.46;96499.16;5096056;28;19960;-74
2022/06/06 10:17:05;;;;;;;;;;;;;;;22.83;47.13;96501.78;5078062;28;19953;-74
2022/06/06 10:19:37;;;;;;;;;;;;;;;23.07;48.16;96508.84;5077712;28;19961;-74
2022/06/06 10:22:06;;;;;;;;;;;;;;;23.20;47.19;96494.66;5095095;28;19955;-74
2022/06/06 10:24:47;;;;;;;;;;;;;;;23.21;46.85;96488.25;5095831;28;19974;-73
2022/06/06 10:27:32;;;;;;;;;;;;;;;23.35;44.46;96476.72;5095947;28;19978;-74
2022/06/06 10:30:40;;;;;;;;;;;;;;;23.43;48.22;96510.81;5088614;28;19980;-74
2022/06/06 10:33:15;;;;;;;;;;;;;;;23.33;47.94;96497.63;5095291;28;19957;-74
2022/06/06 10:35:44;;;;;;;;;;;;;;;23.38;47.65;96487.63;5095626;28;19971;-74
2022/06/06 10:38:20;;;;;;;;;;;;;;;23.47;47.02;96479.69;5086256;28;19953;-74
2022/06/06 10:40:55;;;;;;;;;;;;;;;23.40;47.02;96482.00;5095173;28;19956;-74
2022/06/06 10:43:30;;;;;;;;;;;;;;;23.33;47.62;96484.25;5094834;28;19958;-73
2022/06/06 10:46:01;;;;;;;;;;;;;;;23.39;43.99;96453.63;5095468;28;19951;-74
2022/06/06 10:49:02;;;;;;;;;;;;;;;23.37;44.22;96455.81;5095633;28;20293;-74
2022/06/06 10:51:37;;;;;;;;;;;;;;;23.34;44.63;96469.81;5053331;28;20393;-74
2022/06/06 10:54:26;;;;;;;;;;;;;;;23.19;47.04;96492.31;5077992;28;19955;-73
2022/06/06 10:57:10;;;;;;;;;;;;;;;23.01;46.90;96499.34;5075083;28;19955;-73
2022/06/06 10:59:49;;;;;;;;;;;;;;;22.84;46.16;96486.50;5095022;28;19959;-74
2022/06/06 11:02:30;;;;;;;;;;;;;;;22.69;46.26;96483.03;5095239;28;19966;-74
2022/06/06 11:05:11;;;;;;;;;;;;;;;22.49;44.94;96472.72;5094984;28;19977;-74
2022/06/06 11:07:46;;;;;;;;;;;;;;;22.35;46.87;96482.56;5092239;28;20398;-74
2022/06/06 11:10:34;;;;;;;;;;;;;;;22.26;47.80;96487.78;5095074;28;19955;-73
2022/06/06 11:13:19;;;;;;;;;;;;;;;22.14;47.31;96495.41;5094769;28;19953;-74
2022/06/06 11:15:54;;;;;;;;;;;;;;;21.99;47.39;96493.78;5068980;28;19958;-73
2022/06/06 11:18:20;;;;;;;;;;;;;;;21.86;46.27;96477.41;5079692;28;19973;-74
2022/06/06 11:20:58;;;;;;;;;;;;;;;21.77;48.91;96503.16;5093813;28;20412;-73
2022/06/06 11:23:26;;;;;;;;;;;;;;;21.62;48.46;96496.13;5094612;28;19952;-73
2022/06/06 11:26:11;;;;;;;;;;;;;;;21.56;49.88;96510.63;5094691;28;20411;-73
2022/06/06 11:28:46;;;;;;;;;;;;;;;21.49;48.26;96500.31;5094434;28;20356;-74
2022/06/06 11:31:21;;;;;;;;;;;;;;;21.41;49.50;96508.91;5094632;28;19973;-73
2022/06/06 11:34:03;;;;;;;;;;;;;;;21.36;49.04;96497.53;5094523;28;19965;-74
2022/06/06 11:36:54;;;;;;;;;;;;;;;21.28;49.28;96505.06;5077069;28;19961;-74
2022/06/06 11:39:19;;;;;;;;;;;;;;;21.26;50.85;96509.13;5094637;28;19948;-73
2022/06/06 11:42:25;;;;;;;;;;;;;;;21.22;50.45;96508.09;5093961;28;19954;-73
2022/06/06 11:44:51;;;;;;;;;;;;;;;21.16;50.86;96507.34;5094236;28;20423;-74
2022/06/06 11:47:27;;;;;;;;;;;;;;;21.17;50.46;96500.16;5086994;28;19950;-74
2022/06/06 11:50:12;;;;;;;;;;;;;;;21.21;51.40;96512.63;5094441;28;19962;-73
2022/06/06 11:52:37;;;;;;;;;;;;;;;21.25;50.09;96500.31;5082789;28;20323;-74
2022/06/06 11:55:26;;;;;;;;;;;;;;;21.34;50.47;96505.81;5093958;28;19959;-74
2022/06/06 11:58:12;;;;;;;;;;;;;;;21.48;50.14;96500.59;5093916;28;19963;-74
2022/06/06 12:00:37;;;;;;;;;;;;;;;21.58;50.58;96487.13;5093846;28;19959;-74
2022/06/06 12:03:03;;;;;;;;;;;;;;;21.67;50.52;96492.59;5094042;28;19960;-73
2022/06/06 12:05:56;;;;;;;;;;;;;;;21.71;51.64;96496.28;5087578;28;20420;-74
2022/06/06 12:08:22;;;;;;;;;;;;;;;21.73;49.87;96475.44;5093993;28;19944;-74
2022/06/06 12:11:02;;;;;;;;;;;;;;;21.72;50.94;96484.53;5093723;28;19986;-74
2022/06/06 12:13:46;;;;;;;;;;;;;;;21.75;49.79;96464.47;5093713;28;19968;-74
2022/06/06 12:16:28;;;;;;;;;;;;;;;21.97;50.50;96472.69;5093674;28;19960;-74
2022/06/06 12:19:00;;;;;;;;;;;;;;;22.35;47.76;96434.47;5094457;28;20417;-74
2022/06/06 12:22:07;;;;;;;;;;;;;;;22.67;50.77;96463.03;5092326;28;19949;-74
2022/06/06 12:24:40;;;;;;;;;;;;;;;22.79;49.68;96447.28;5075812;28;20341;-74
2022/06/06 12:27:14;;;;;;;;;;;;;;;22.87;48.52;96430.56;5093897;28;19958;-74
2022/06/06 12:30:01;;;;;;;;;;;;;;;23.10;47.33;96418.09;5093703;28;19960;-74
2022/06/06 12:32:50;;;;;;;;;;;;;;;23.23;46.74;96405.78;5093603;28;19968;-74
2022/06/06 12:35:18;;;;;;;;;;;;;;;23.43;48.25;96419.81;5096679;28;20406;-74
2022/06/06 12:37:44;;;;;;;;;;;;;;;23.51;47.51;96419.09;5082528;28;20360;-74
2022/06/06 12:40:24;;;;;;;;;;;;;;;23.71;47.33;96401.81;5099462;28;19963;-74
2022/06/06 12:43:08;;;;;;;;;;;;;;;23.90;46.04;96397.09;5099838;28;19961;-74
2022/06/06 12:45:47;;;;;;;;;;;;;;;23.82;43.05;96371.03;5100089;28;20417;-74
2022/06/06 12:48:19;;;;;;;;;;;;;;;23.65;46.22;96401.13;5100523;28;19951;-74
2022/06/06 12:50:45;;;;;;;;;;;;;;;23.44;45.34;96387.41;5100260;28;19976;-73
2022/06/06 12:53:26;;;;;;;;;;;;;;;23.29;46.24;96403.81;5100182;28;20409;-74
2022/06/06 12:56:26;;;;;;;;;;;;;;;23.12;44.91;96382.22;5091677;28;19950;-74
2022/06/06 12:59:17;;;;;;;;;;;;;;;22.97;44.75;96377.97;5091765;28;19957;-74
2022/06/06 13:02:17;;;;;;;;;;;;;;;22.79;43.89;96377.78;5064594;28;19968;-73
2022/06/06 13:05:02;;;;;;;;;;;;;;;22.67;42.69;96361.44;5100113;28;19987;-74
2022/06/06 13:07:43;;;;;;;;;;;;;;;22.59;46.01;96405.69;5099659;28;20408;-74
2022/06/06 13:10:28;;;;;;;;;;;;;;;22.50;46.24;96396.78;5099933;28;19959;-74
2022/06/06 13:13:03;;;;;;;;;;;;;;;22.40;45.57;96410.31;5100394;28;19958;-74
2022/06/06 13:15:37;;;;;;;;;;;;;;;22.32;46.31;96422.47;5091226;28;19957;-74
2022/06/06 13:18:21;;;;;;;;;;;;;;;22.19;44.68;96407.97;5100206;28;19949;-74
2022/06/06 13:20:55;;;;;;;;;;;;;;;22.05;46.79;96436.53;5099360;28;20255;-74
2022/06/06 13:23:39;;;;;;;;;;;;;;;22.04;48.14;96453.63;5085373;28;19954;-74
2022/06/06 13:26:14;;;;;;;;;;;;;;;22.01;48.91;96465.69;5100024;28;20343;-74
2022/06/06 13:28:43;;;;;;;;;;;;;;;21.88;47.33;96447.72;5100050;28;19958;-74
2022/06/06 13:31:21;;;;;;;;;;;;;;;21.76;47.37;96458.06;5099678;28;20331;-73
2022/06/06 13:34:14;;;;;;;;;;;;;;;21.64;48.97;96469.97;5099983;28;19966;-74
2022/06/06 13:36:55;;;;;;;;;;;;;;;21.53;49.39;96473.06;5099724;28;19957;-73
2022/06/06 13:39:31;;;;;;;;;;;;;;;21.47;49.80;96489.13;5099197;28;19952;-74
2022/06/06 13:42:04;;;;;;;;;;;;;;;21.40;49.98;96480.66;5100166;28;19955;-73
2022/06/06 13:44:47;;;;;;;;;;;;;;;21.27;50.11;96474.16;5084956;28;20362;-74
2022/06/06 13:47:31;;;;;;;;;;;;;;;21.20;51.29;96489.69;5096488;28;19963;-74
2022/06/06 13:50:09;;;;;;;;;;;;;;;21.22;52.09;96492.09;5082450;28;19955;-73
2022/06/06 13:52:53;;;;;;;;;;;;;;;21.25;51.78;96479.00;5096583;28;20450;-74